sensor_id;sensor_type;location;lat;lon;timestamp;temperature;humidity
14236;DHT22;7202;50.718;7.072;2022-08-24T00:00:39;20.60;99.90
14236;DHT22;7202;50.718;7.072;2022-08-24T00:03:08;20.60;99.90
14236;DHT22;7202;50.718;7.072;2022-08-24T00:05:39;20.50;99.90
14236;DHT22;7202;50.718;7.072;2022-08-24T00:08:07;20.40;99.90
14236;DHT22;7202;50.718;7.072;2022-08-24T00:10:37;20.40;99.90
14236;DHT22;7202;50.718;7.072;2022-08-24T00:13:06;20.30;99.90
14236;DHT22;7202;50.718;7.072;2022-08-24T00:15:36;20.30;99.90
14236;DHT22;7202;50.718;7.072;2022-08-24T00:18:04;20.20;99.90
14236;DHT22;7202;50.718;7.072;2022-08-24T00:20:33;20.20;99.90
14236;DHT22;7202;50.718;7.072;2022-08-24T00:23:02;20.20;99.90
14236;DHT22;7202;50.718;7.072;2022-08-24T00:25:31;20.10;99.90
14236;DHT22;7202;50.718;7.072;2022-08-24T00:28:02;20.10;99.90
14236;DHT22;7202;50.718;7.072;2022-08-24T00:30:32;20.10;99.90
14236;DHT22;7202;50.718;7.072;2022-08-24T00:33:02;20.10;99.90
14236;DHT22;7202;50.718;7.072;2022-08-24T00:35:31;20.00;99.90
14236;DHT22;7202;50.718;7.072;2022-08-24T00:37:59;20.00;99.90
14236;DHT22;7202;50.718;7.072;2022-08-24T00:40:39;20.00;99.90
14236;DHT22;7202;50.718;7.072;2022-08-24T00:43:09;19.90;99.90
14236;DHT22;7202;50.718;7.072;2022-08-24T00:45:43;19.90;99.90
14236;DHT22;7202;50.718;7.072;2022-08-24T00:48:16;20.00;99.90
14236;DHT22;7202;50.718;7.072;2022-08-24T00:50:55;19.90;99.90
14236;DHT22;7202;50.718;7.072;2022-08-24T00:53:30;19.90;99.90
14236;DHT22;7202;50.718;7.072;2022-08-24T00:56:04;19.90;99.90
14236;DHT22;7202;50.718;7.072;2022-08-24T00:58:38;19.80;99.90
14236;DHT22;7202;50.718;7.072;2022-08-24T01:01:08;19.80;99.90
14236;DHT22;7202;50.718;7.072;2022-08-24T01:03:41;19.80;99.90
14236;DHT22;7202;50.718;7.072;2022-08-24T01:06:13;19.80;99.90
14236;DHT22;7202;50.718;7.072;2022-08-24T01:08:42;19.80;99.90
14236;DHT22;7202;50.718;7.072;2022-08-24T01:11:15;19.80;99.90
14236;DHT22;7202;50.718;7.072;2022-08-24T01:13:48;19.80;99.90
14236;DHT22;7202;50.718;7.072;2022-08-24T01:16:19;19.80;99.90
14236;DHT22;7202;50.718;7.072;2022-08-24T01:19:03;19.90;99.90
14236;DHT22;7202;50.718;7.072;2022-08-24T01:21:39;19.90;99.90
14236;DHT22;7202;50.718;7.072;2022-08-24T01:24:11;20.00;99.90
14236;DHT22;7202;50.718;7.072;2022-08-24T01:26:44;19.90;99.90
14236;DHT22;7202;50.718;7.072;2022-08-24T01:29:16;19.90;99.90
14236;DHT22;7202;50.718;7.072;2022-08-24T01:31:46;19.80;99.90
14236;DHT22;7202;50.718;7.072;2022-08-24T01:34:14;19.80;99.90
14236;DHT22;7202;50.718;7.072;2022-08-24T01:36:45;19.80;99.90
14236;DHT22;7202;50.718;7.072;2022-08-24T01:39:20;19.80;99.90
14236;DHT22;7202;50.718;7.072;2022-08-24T01:41:50;19.70;99.90
14236;DHT22;7202;50.718;7.072;2022-08-24T01:44:20;19.60;99.90
14236;DHT22;7202;50.718;7.072;2022-08-24T01:46:52;19.50;99.90
14236;DHT22;7202;50.718;7.072;2022-08-24T01:49:23;19.50;99.90
14236;DHT22;7202;50.718;7.072;2022-08-24T01:51:53;19.40;99.90
14236;DHT22;7202;50.718;7.072;2022-08-24T01:54:24;19.40;99.90
14236;DHT22;7202;50.718;7.072;2022-08-24T01:56:53;19.30;99.90
14236;DHT22;7202;50.718;7.072;2022-08-24T01:59:21;19.40;99.90
14236;DHT22;7202;50.718;7.072;2022-08-24T02:01:54;19.20;99.90
14236;DHT22;7202;50.718;7.072;2022-08-24T02:04:24;19.20;99.90
14236;DHT22;7202;50.718;7.072;2022-08-24T02:06:54;19.20;99.90
14236;DHT22;7202;50.718;7.072;2022-08-24T02:09:24;19.10;99.90
14236;DHT22;7202;50.718;7.072;2022-08-24T02:12:00;19.00;99.90
14236;DHT22;7202;50.718;7.072;2022-08-24T02:14:34;19.00;99.90
14236;DHT22;7202;50.718;7.072;2022-08-24T02:17:04;19.00;99.90
14236;DHT22;7202;50.718;7.072;2022-08-24T02:19:34;19.00;99.90
14236;DHT22;7202;50.718;7.072;2022-08-24T02:22:03;19.00;99.90
14236;DHT22;7202;50.718;7.072;2022-08-24T02:24:37;18.90;99.90
14236;DHT22;7202;50.718;7.072;2022-08-24T02:27:06;18.90;99.90
14236;DHT22;7202;50.718;7.072;2022-08-24T02:29:35;18.80;99.90
14236;DHT22;7202;50.718;7.072;2022-08-24T02:32:04;18.80;99.90
14236;DHT22;7202;50.718;7.072;2022-08-24T02:34:33;18.80;99.90
14236;DHT22;7202;50.718;7.072;2022-08-24T02:37:03;18.80;99.90
14236;DHT22;7202;50.718;7.072;2022-08-24T02:39:32;18.70;99.90
14236;DHT22;7202;50.718;7.072;2022-08-24T02:42:06;18.70;99.90
14236;DHT22;7202;50.718;7.072;2022-08-24T02:44:34;18.70;99.90
14236;DHT22;7202;50.718;7.072;2022-08-24T02:47:03;18.70;99.90
14236;DHT22;7202;50.718;7.072;2022-08-24T02:49:34;18.60;99.90
14236;DHT22;7202;50.718;7.072;2022-08-24T02:52:03;18.60;99.90
14236;DHT22;7202;50.718;7.072;2022-08-24T02:54:34;18.50;99.90
14236;DHT22;7202;50.718;7.072;2022-08-24T02:57:04;18.50;99.90
14236;DHT22;7202;50.718;7.072;2022-08-24T02:59:34;18.50;99.90
14236;DHT22;7202;50.718;7.072;2022-08-24T03:02:03;18.40;99.90
14236;DHT22;7202;50.718;7.072;2022-08-24T03:04:32;18.40;99.90
14236;DHT22;7202;50.718;7.072;2022-08-24T03:07:03;18.40;99.90
14236;DHT22;7202;50.718;7.072;2022-08-24T03:09:32;18.40;99.90
14236;DHT22;7202;50.718;7.072;2022-08-24T03:12:00;18.50;99.90
14236;DHT22;7202;50.718;7.072;2022-08-24T03:14:29;18.40;99.90
14236;DHT22;7202;50.718;7.072;2022-08-24T03:16:59;18.40;99.90
14236;DHT22;7202;50.718;7.072;2022-08-24T03:19:28;18.50;99.90
14236;DHT22;7202;50.718;7.072;2022-08-24T03:21:57;18.50;99.90
14236;DHT22;7202;50.718;7.072;2022-08-24T03:24:26;18.50;99.90
14236;DHT22;7202;50.718;7.072;2022-08-24T03:26:55;18.50;99.90
14236;DHT22;7202;50.718;7.072;2022-08-24T03:29:26;18.50;99.90
14236;DHT22;7202;50.718;7.072;2022-08-24T03:32:02;18.50;99.90
14236;DHT22;7202;50.718;7.072;2022-08-24T03:34:31;18.50;99.90
14236;DHT22;7202;50.718;7.072;2022-08-24T03:37:00;18.50;99.90
14236;DHT22;7202;50.718;7.072;2022-08-24T03:39:29;18.50;99.90
14236;DHT22;7202;50.718;7.072;2022-08-24T03:41:58;18.50;99.90
14236;DHT22;7202;50.718;7.072;2022-08-24T03:44:26;18.50;99.90
14236;DHT22;7202;50.718;7.072;2022-08-24T03:46:55;18.40;99.90
14236;DHT22;7202;50.718;7.072;2022-08-24T03:49:27;18.40;99.90
14236;DHT22;7202;50.718;7.072;2022-08-24T03:51:56;18.30;99.90
14236;DHT22;7202;50.718;7.072;2022-08-24T03:54:25;18.30;99.90
14236;DHT22;7202;50.718;7.072;2022-08-24T03:56:54;18.20;99.90
14236;DHT22;7202;50.718;7.072;2022-08-24T03:59:24;18.20;99.90
14236;DHT22;7202;50.718;7.072;2022-08-24T04:01:56;18.20;99.90
14236;DHT22;7202;50.718;7.072;2022-08-24T04:04:27;18.10;99.90
14236;DHT22;7202;50.718;7.072;2022-08-24T04:06:56;18.10;99.90
14236;DHT22;7202;50.718;7.072;2022-08-24T04:09:26;18.00;99.90
14236;DHT22;7202;50.718;7.072;2022-08-24T04:11:55;18.00;99.90
14236;DHT22;7202;50.718;7.072;2022-08-24T04:14:25;17.90;99.90
14236;DHT22;7202;50.718;7.072;2022-08-24T04:17:10;17.90;99.90
14236;DHT22;7202;50.718;7.072;2022-08-24T04:19:44;17.90;99.90
14236;DHT22;7202;50.718;7.072;2022-08-24T04:22:29;17.90;99.90
14236;DHT22;7202;50.718;7.072;2022-08-24T04:24:59;17.90;99.90
14236;DHT22;7202;50.718;7.072;2022-08-24T04:27:35;17.80;99.90
14236;DHT22;7202;50.718;7.072;2022-08-24T04:30:05;17.80;99.90
14236;DHT22;7202;50.718;7.072;2022-08-24T04:32:49;17.80;99.90
14236;DHT22;7202;50.718;7.072;2022-08-24T04:35:20;17.80;99.90
14236;DHT22;7202;50.718;7.072;2022-08-24T04:37:48;17.80;99.90
14236;DHT22;7202;50.718;7.072;2022-08-24T04:40:17;17.80;99.90
14236;DHT22;7202;50.718;7.072;2022-08-24T04:42:48;17.80;99.90
14236;DHT22;7202;50.718;7.072;2022-08-24T04:45:17;17.80;99.90
14236;DHT22;7202;50.718;7.072;2022-08-24T04:47:46;17.70;99.90
14236;DHT22;7202;50.718;7.072;2022-08-24T04:50:15;17.70;99.90
14236;DHT22;7202;50.718;7.072;2022-08-24T04:52:51;17.70;99.90
14236;DHT22;7202;50.718;7.072;2022-08-24T04:55:20;17.70;99.90
14236;DHT22;7202;50.718;7.072;2022-08-24T04:57:50;17.60;99.90
14236;DHT22;7202;50.718;7.072;2022-08-24T05:00:20;17.60;99.90
14236;DHT22;7202;50.718;7.072;2022-08-24T05:02:48;17.60;99.90
14236;DHT22;7202;50.718;7.072;2022-08-24T05:05:17;17.60;99.90
14236;DHT22;7202;50.718;7.072;2022-08-24T05:07:46;17.60;99.90
14236;DHT22;7202;50.718;7.072;2022-08-24T05:10:20;17.60;99.90
14236;DHT22;7202;50.718;7.072;2022-08-24T05:12:49;17.60;99.90
14236;DHT22;7202;50.718;7.072;2022-08-24T05:15:19;17.60;99.90
14236;DHT22;7202;50.718;7.072;2022-08-24T05:17:48;17.60;99.90
14236;DHT22;7202;50.718;7.072;2022-08-24T05:20:18;17.60;99.90
14236;DHT22;7202;50.718;7.072;2022-08-24T05:22:50;17.70;99.90
14236;DHT22;7202;50.718;7.072;2022-08-24T05:25:37;17.70;99.90
14236;DHT22;7202;50.718;7.072;2022-08-24T05:28:06;17.70;99.90
14236;DHT22;7202;50.718;7.072;2022-08-24T05:30:35;17.70;99.90
14236;DHT22;7202;50.718;7.072;2022-08-24T05:33:09;17.80;99.90
14236;DHT22;7202;50.718;7.072;2022-08-24T05:35:39;17.80;99.90
14236;DHT22;7202;50.718;7.072;2022-08-24T05:38:11;17.80;99.90
14236;DHT22;7202;50.718;7.072;2022-08-24T05:40:41;17.90;99.90
14236;DHT22;7202;50.718;7.072;2022-08-24T05:43:10;17.90;99.90
14236;DHT22;7202;50.718;7.072;2022-08-24T05:45:40;18.00;99.90
14236;DHT22;7202;50.718;7.072;2022-08-24T05:48:11;18.00;99.90
14236;DHT22;7202;50.718;7.072;2022-08-24T05:51:06;18.10;99.90
14236;DHT22;7202;50.718;7.072;2022-08-24T05:53:42;18.10;99.90
14236;DHT22;7202;50.718;7.072;2022-08-24T05:56:15;18.20;99.90
14236;DHT22;7202;50.718;7.072;2022-08-24T05:58:44;18.30;99.90
14236;DHT22;7202;50.718;7.072;2022-08-24T06:01:16;18.40;99.90
14236;DHT22;7202;50.718;7.072;2022-08-24T06:03:46;18.50;99.90
14236;DHT22;7202;50.718;7.072;2022-08-24T06:06:16;18.60;99.90
14236;DHT22;7202;50.718;7.072;2022-08-24T06:08:48;18.70;99.90
14236;DHT22;7202;50.718;7.072;2022-08-24T06:11:23;18.90;99.90
14236;DHT22;7202;50.718;7.072;2022-08-24T06:14:00;19.00;99.90
14236;DHT22;7202;50.718;7.072;2022-08-24T06:16:37;19.20;99.90
14236;DHT22;7202;50.718;7.072;2022-08-24T06:19:08;19.40;99.90
14236;DHT22;7202;50.718;7.072;2022-08-24T06:21:37;19.50;99.90
14236;DHT22;7202;50.718;7.072;2022-08-24T06:24:07;19.60;99.90
14236;DHT22;7202;50.718;7.072;2022-08-24T06:26:37;19.70;99.90
14236;DHT22;7202;50.718;7.072;2022-08-24T06:29:33;19.80;99.90
14236;DHT22;7202;50.718;7.072;2022-08-24T06:32:22;20.00;99.90
14236;DHT22;7202;50.718;7.072;2022-08-24T06:34:55;20.10;99.90
14236;DHT22;7202;50.718;7.072;2022-08-24T06:37:25;20.20;99.90
14236;DHT22;7202;50.718;7.072;2022-08-24T06:39:57;20.30;99.90
14236;DHT22;7202;50.718;7.072;2022-08-24T06:42:27;20.40;99.90
14236;DHT22;7202;50.718;7.072;2022-08-24T06:44:59;20.50;99.90
14236;DHT22;7202;50.718;7.072;2022-08-24T06:47:28;20.50;99.90
14236;DHT22;7202;50.718;7.072;2022-08-24T06:50:00;20.60;99.90
14236;DHT22;7202;50.718;7.072;2022-08-24T06:52:28;20.60;99.90
14236;DHT22;7202;50.718;7.072;2022-08-24T06:54:57;20.70;99.90
14236;DHT22;7202;50.718;7.072;2022-08-24T06:57:28;20.70;99.90
14236;DHT22;7202;50.718;7.072;2022-08-24T06:59:58;20.80;99.90
14236;DHT22;7202;50.718;7.072;2022-08-24T07:02:27;20.80;99.90
14236;DHT22;7202;50.718;7.072;2022-08-24T07:04:56;20.90;99.90
14236;DHT22;7202;50.718;7.072;2022-08-24T07:07:57;21.00;99.90
14236;DHT22;7202;50.718;7.072;2022-08-24T07:10:26;21.00;99.90
14236;DHT22;7202;50.718;7.072;2022-08-24T07:12:58;21.10;99.90
14236;DHT22;7202;50.718;7.072;2022-08-24T07:15:27;21.10;99.90
14236;DHT22;7202;50.718;7.072;2022-08-24T07:18:06;21.10;99.90
14236;DHT22;7202;50.718;7.072;2022-08-24T07:20:40;21.20;99.90
14236;DHT22;7202;50.718;7.072;2022-08-24T07:23:18;21.20;99.90
14236;DHT22;7202;50.718;7.072;2022-08-24T07:25:47;21.30;99.90
14236;DHT22;7202;50.718;7.072;2022-08-24T07:28:23;21.40;99.90
14236;DHT22;7202;50.718;7.072;2022-08-24T07:30:59;21.50;99.90
14236;DHT22;7202;50.718;7.072;2022-08-24T07:33:32;21.60;99.90
14236;DHT22;7202;50.718;7.072;2022-08-24T07:36:01;21.70;99.90
14236;DHT22;7202;50.718;7.072;2022-08-24T07:38:30;21.70;99.90
14236;DHT22;7202;50.718;7.072;2022-08-24T07:41:00;21.80;99.90
14236;DHT22;7202;50.718;7.072;2022-08-24T07:43:50;21.90;99.90
14236;DHT22;7202;50.718;7.072;2022-08-24T07:46:19;21.90;99.90
14236;DHT22;7202;50.718;7.072;2022-08-24T07:48:49;22.00;99.90
14236;DHT22;7202;50.718;7.072;2022-08-24T07:51:38;22.00;99.90
14236;DHT22;7202;50.718;7.072;2022-08-24T07:54:13;22.20;99.90
14236;DHT22;7202;50.718;7.072;2022-08-24T07:56:43;22.30;99.90
14236;DHT22;7202;50.718;7.072;2022-08-24T07:59:13;22.40;99.90
14236;DHT22;7202;50.718;7.072;2022-08-24T08:01:42;22.50;99.90
14236;DHT22;7202;50.718;7.072;2022-08-24T08:04:12;22.50;99.90
14236;DHT22;7202;50.718;7.072;2022-08-24T08:06:42;22.60;99.90
14236;DHT22;7202;50.718;7.072;2022-08-24T08:09:11;22.70;99.90
14236;DHT22;7202;50.718;7.072;2022-08-24T08:11:39;22.80;99.90
14236;DHT22;7202;50.718;7.072;2022-08-24T08:14:09;22.90;99.90
14236;DHT22;7202;50.718;7.072;2022-08-24T08:16:39;23.00;99.90
14236;DHT22;7202;50.718;7.072;2022-08-24T08:19:08;23.10;99.90
14236;DHT22;7202;50.718;7.072;2022-08-24T08:21:42;23.10;99.90
14236;DHT22;7202;50.718;7.072;2022-08-24T08:24:31;23.20;99.90
14236;DHT22;7202;50.718;7.072;2022-08-24T08:27:02;23.30;99.90
14236;DHT22;7202;50.718;7.072;2022-08-24T08:29:37;23.40;99.90
14236;DHT22;7202;50.718;7.072;2022-08-24T08:32:09;23.50;99.90
14236;DHT22;7202;50.718;7.072;2022-08-24T08:34:41;23.60;99.90
14236;DHT22;7202;50.718;7.072;2022-08-24T08:37:10;23.70;99.90
14236;DHT22;7202;50.718;7.072;2022-08-24T08:39:39;23.80;99.90
14236;DHT22;7202;50.718;7.072;2022-08-24T08:42:38;23.90;99.90
14236;DHT22;7202;50.718;7.072;2022-08-24T08:45:21;24.00;99.90
14236;DHT22;7202;50.718;7.072;2022-08-24T08:48:39;24.10;99.90
14236;DHT22;7202;50.718;7.072;2022-08-24T08:51:50;24.20;99.90
14236;DHT22;7202;50.718;7.072;2022-08-24T08:54:36;24.30;99.90
14236;DHT22;7202;50.718;7.072;2022-08-24T09:00:19;24.50;99.90
14236;DHT22;7202;50.718;7.072;2022-08-24T09:03:21;24.60;99.90
14236;DHT22;7202;50.718;7.072;2022-08-24T09:10:02;24.70;99.90
14236;DHT22;7202;50.718;7.072;2022-08-24T09:12:50;24.80;99.90
14236;DHT22;7202;50.718;7.072;2022-08-24T09:15:33;24.90;99.90
14236;DHT22;7202;50.718;7.072;2022-08-24T09:18:15;25.00;99.90
14236;DHT22;7202;50.718;7.072;2022-08-24T09:20:59;25.10;99.90
14236;DHT22;7202;50.718;7.072;2022-08-24T09:23:34;25.20;99.90
14236;DHT22;7202;50.718;7.072;2022-08-24T09:26:08;25.30;99.90
14236;DHT22;7202;50.718;7.072;2022-08-24T09:28:51;25.40;99.90
14236;DHT22;7202;50.718;7.072;2022-08-24T09:31:41;25.40;99.90
14236;DHT22;7202;50.718;7.072;2022-08-24T09:34:22;25.50;99.90
14236;DHT22;7202;50.718;7.072;2022-08-24T09:37:03;25.50;99.90
14236;DHT22;7202;50.718;7.072;2022-08-24T09:39:37;25.60;99.90
14236;DHT22;7202;50.718;7.072;2022-08-24T09:42:46;25.70;99.90
14236;DHT22;7202;50.718;7.072;2022-08-24T09:45:40;25.70;99.90
14236;DHT22;7202;50.718;7.072;2022-08-24T09:48:48;25.90;99.90
14236;DHT22;7202;50.718;7.072;2022-08-24T09:54:52;26.10;99.90
14236;DHT22;7202;50.718;7.072;2022-08-24T09:57:32;26.20;99.90
14236;DHT22;7202;50.718;7.072;2022-08-24T10:00:28;26.30;99.90
14236;DHT22;7202;50.718;7.072;2022-08-24T10:03:02;26.50;99.90
14236;DHT22;7202;50.718;7.072;2022-08-24T10:05:55;26.60;99.90
14236;DHT22;7202;50.718;7.072;2022-08-24T10:08:34;26.60;99.90
14236;DHT22;7202;50.718;7.072;2022-08-24T10:11:16;26.70;99.90
14236;DHT22;7202;50.718;7.072;2022-08-24T10:13:54;26.70;99.90
14236;DHT22;7202;50.718;7.072;2022-08-24T10:16:32;26.80;99.90
14236;DHT22;7202;50.718;7.072;2022-08-24T10:19:24;26.90;99.90
14236;DHT22;7202;50.718;7.072;2022-08-24T10:22:04;27.00;99.90
14236;DHT22;7202;50.718;7.072;2022-08-24T10:24:44;27.10;99.90
14236;DHT22;7202;50.718;7.072;2022-08-24T10:27:38;27.20;99.90
14236;DHT22;7202;50.718;7.072;2022-08-24T10:30:26;27.20;99.90
14236;DHT22;7202;50.718;7.072;2022-08-24T10:33:08;27.40;99.90
14236;DHT22;7202;50.718;7.072;2022-08-24T10:36:03;27.50;99.90
14236;DHT22;7202;50.718;7.072;2022-08-24T10:38:45;27.50;99.90
14236;DHT22;7202;50.718;7.072;2022-08-24T10:42:00;27.70;99.90
14236;DHT22;7202;50.718;7.072;2022-08-24T10:44:47;27.70;99.90
14236;DHT22;7202;50.718;7.072;2022-08-24T10:47:20;27.70;99.90
14236;DHT22;7202;50.718;7.072;2022-08-24T10:50:13;27.70;99.90
14236;DHT22;7202;50.718;7.072;2022-08-24T10:53:12;27.80;99.90
14236;DHT22;7202;50.718;7.072;2022-08-24T10:55:42;27.80;99.90
14236;DHT22;7202;50.718;7.072;2022-08-24T11:01:21;27.80;99.90
14236;DHT22;7202;50.718;7.072;2022-08-24T11:03:54;27.90;99.90
14236;DHT22;7202;50.718;7.072;2022-08-24T11:06:25;28.00;99.90
14236;DHT22;7202;50.718;7.072;2022-08-24T11:08:58;28.10;99.90
14236;DHT22;7202;50.718;7.072;2022-08-24T11:11:31;28.20;99.90
14236;DHT22;7202;50.718;7.072;2022-08-24T11:14:02;28.30;99.90
14236;DHT22;7202;50.718;7.072;2022-08-24T11:16:39;28.40;99.90
14236;DHT22;7202;50.718;7.072;2022-08-24T11:19:10;28.50;99.60
14236;DHT22;7202;50.718;7.072;2022-08-24T11:21:47;28.70;99.20
14236;DHT22;7202;50.718;7.072;2022-08-24T11:24:40;28.70;99.40
14236;DHT22;7202;50.718;7.072;2022-08-24T11:27:25;28.80;99.20
14236;DHT22;7202;50.718;7.072;2022-08-24T11:30:11;28.90;99.50
14236;DHT22;7202;50.718;7.072;2022-08-24T11:32:44;28.90;98.70
14236;DHT22;7202;50.718;7.072;2022-08-24T11:35:23;29.00;98.40
14236;DHT22;7202;50.718;7.072;2022-08-24T11:37:54;29.10;97.00
14236;DHT22;7202;50.718;7.072;2022-08-24T11:40:27;29.20;97.00
14236;DHT22;7202;50.718;7.072;2022-08-24T11:43:19;29.30;96.70
14236;DHT22;7202;50.718;7.072;2022-08-24T11:46:01;29.40;97.20
14236;DHT22;7202;50.718;7.072;2022-08-24T11:48:41;29.50;96.50
14236;DHT22;7202;50.718;7.072;2022-08-24T11:51:23;29.60;96.70
14236;DHT22;7202;50.718;7.072;2022-08-24T11:54:00;29.70;95.80
14236;DHT22;7202;50.718;7.072;2022-08-24T11:56:35;29.90;95.60
14236;DHT22;7202;50.718;7.072;2022-08-24T11:59:14;30.00;94.10
14236;DHT22;7202;50.718;7.072;2022-08-24T12:01:50;30.10;93.60
14236;DHT22;7202;50.718;7.072;2022-08-24T12:04:38;30.10;94.30
14236;DHT22;7202;50.718;7.072;2022-08-24T12:07:21;30.30;93.70
14236;DHT22;7202;50.718;7.072;2022-08-24T12:10:14;30.30;92.30
14236;DHT22;7202;50.718;7.072;2022-08-24T12:12:50;30.40;91.40
14236;DHT22;7202;50.718;7.072;2022-08-24T12:15:26;30.50;92.10
14236;DHT22;7202;50.718;7.072;2022-08-24T12:18:00;30.60;91.60
14236;DHT22;7202;50.718;7.072;2022-08-24T12:20:37;30.70;91.40
14236;DHT22;7202;50.718;7.072;2022-08-24T12:23:13;30.70;91.50
14236;DHT22;7202;50.718;7.072;2022-08-24T12:25:46;30.80;90.60
14236;DHT22;7202;50.718;7.072;2022-08-24T12:28:35;30.80;91.10
14236;DHT22;7202;50.718;7.072;2022-08-24T12:31:10;30.90;89.20
14236;DHT22;7202;50.718;7.072;2022-08-24T12:33:45;31.00;90.10
14236;DHT22;7202;50.718;7.072;2022-08-24T12:36:25;31.10;89.90
14236;DHT22;7202;50.718;7.072;2022-08-24T12:39:05;31.10;89.40
14236;DHT22;7202;50.718;7.072;2022-08-24T12:41:42;31.20;89.00
14236;DHT22;7202;50.718;7.072;2022-08-24T12:44:15;31.20;89.40
14236;DHT22;7202;50.718;7.072;2022-08-24T12:46:51;31.20;90.00
14236;DHT22;7202;50.718;7.072;2022-08-24T12:49:24;31.20;89.20
14236;DHT22;7202;50.718;7.072;2022-08-24T12:52:20;31.30;89.30
14236;DHT22;7202;50.718;7.072;2022-08-24T12:55:10;31.30;86.00
14236;DHT22;7202;50.718;7.072;2022-08-24T12:58:00;31.30;86.30
14236;DHT22;7202;50.718;7.072;2022-08-24T13:00:54;31.40;85.00
14236;DHT22;7202;50.718;7.072;2022-08-24T13:03:31;31.50;84.50
14236;DHT22;7202;50.718;7.072;2022-08-24T13:06:05;31.60;83.70
14236;DHT22;7202;50.718;7.072;2022-08-24T13:08:38;31.60;84.70
14236;DHT22;7202;50.718;7.072;2022-08-24T13:11:12;31.60;84.70
14236;DHT22;7202;50.718;7.072;2022-08-24T13:13:45;31.60;85.00
14236;DHT22;7202;50.718;7.072;2022-08-24T13:16:46;31.60;83.20
14236;DHT22;7202;50.718;7.072;2022-08-24T13:19:34;31.70;83.30
14236;DHT22;7202;50.718;7.072;2022-08-24T13:22:38;31.80;84.40
14236;DHT22;7202;50.718;7.072;2022-08-24T13:25:25;31.80;83.40
14236;DHT22;7202;50.718;7.072;2022-08-24T13:28:05;31.80;85.50
14236;DHT22;7202;50.718;7.072;2022-08-24T13:30:55;31.70;83.70
14236;DHT22;7202;50.718;7.072;2022-08-24T13:33:29;31.60;84.60
14236;DHT22;7202;50.718;7.072;2022-08-24T13:36:03;31.40;84.30
14236;DHT22;7202;50.718;7.072;2022-08-24T13:39:05;31.30;85.40
14236;DHT22;7202;50.718;7.072;2022-08-24T13:41:47;31.30;86.40
14236;DHT22;7202;50.718;7.072;2022-08-24T13:44:25;31.40;82.90
14236;DHT22;7202;50.718;7.072;2022-08-24T13:47:05;31.50;86.70
14236;DHT22;7202;50.718;7.072;2022-08-24T13:49:56;31.60;84.60
14236;DHT22;7202;50.718;7.072;2022-08-24T13:52:38;31.70;83.10
14236;DHT22;7202;50.718;7.072;2022-08-24T13:55:27;31.70;81.00
14236;DHT22;7202;50.718;7.072;2022-08-24T13:58:33;31.80;80.50
14236;DHT22;7202;50.718;7.072;2022-08-24T14:01:23;31.80;80.60
14236;DHT22;7202;50.718;7.072;2022-08-24T14:04:27;31.80;81.70
14236;DHT22;7202;50.718;7.072;2022-08-24T14:07:01;31.80;81.00
14236;DHT22;7202;50.718;7.072;2022-08-24T14:09:36;31.90;81.50
14236;DHT22;7202;50.718;7.072;2022-08-24T14:12:16;31.90;78.50
14236;DHT22;7202;50.718;7.072;2022-08-24T14:14:56;31.80;79.60
14236;DHT22;7202;50.718;7.072;2022-08-24T14:17:35;31.80;79.50
14236;DHT22;7202;50.718;7.072;2022-08-24T14:20:57;31.90;79.60
14236;DHT22;7202;50.718;7.072;2022-08-24T14:23:47;31.90;79.40
14236;DHT22;7202;50.718;7.072;2022-08-24T14:27:03;31.90;78.10
14236;DHT22;7202;50.718;7.072;2022-08-24T14:32:30;31.90;77.10
14236;DHT22;7202;50.718;7.072;2022-08-24T14:35:34;32.00;78.90
14236;DHT22;7202;50.718;7.072;2022-08-24T14:41:17;32.00;77.80
14236;DHT22;7202;50.718;7.072;2022-08-24T14:44:07;32.00;77.50
14236;DHT22;7202;50.718;7.072;2022-08-24T14:46:47;32.00;77.00
14236;DHT22;7202;50.718;7.072;2022-08-24T14:49:26;32.10;78.30
14236;DHT22;7202;50.718;7.072;2022-08-24T14:52:06;32.10;76.60
14236;DHT22;7202;50.718;7.072;2022-08-24T14:54:50;32.00;76.40
14236;DHT22;7202;50.718;7.072;2022-08-24T14:57:44;32.00;77.00
14236;DHT22;7202;50.718;7.072;2022-08-24T15:00:17;32.00;77.00
14236;DHT22;7202;50.718;7.072;2022-08-24T15:03:21;32.00;76.00
14236;DHT22;7202;50.718;7.072;2022-08-24T15:06:06;31.90;76.10
14236;DHT22;7202;50.718;7.072;2022-08-24T15:09:05;31.90;77.50
14236;DHT22;7202;50.718;7.072;2022-08-24T15:11:36;31.90;77.60
14236;DHT22;7202;50.718;7.072;2022-08-24T15:14:08;31.90;75.80
14236;DHT22;7202;50.718;7.072;2022-08-24T15:16:51;32.00;75.80
14236;DHT22;7202;50.718;7.072;2022-08-24T15:19:27;32.00;74.20
14236;DHT22;7202;50.718;7.072;2022-08-24T15:22:01;32.00;76.20
14236;DHT22;7202;50.718;7.072;2022-08-24T15:24:36;31.90;76.50
14236;DHT22;7202;50.718;7.072;2022-08-24T15:27:14;31.80;76.50
14236;DHT22;7202;50.718;7.072;2022-08-24T15:29:49;31.70;75.60
14236;DHT22;7202;50.718;7.072;2022-08-24T15:32:20;31.60;75.40
14236;DHT22;7202;50.718;7.072;2022-08-24T15:34:56;31.50;76.40
14236;DHT22;7202;50.718;7.072;2022-08-24T15:37:29;31.40;77.90
14236;DHT22;7202;50.718;7.072;2022-08-24T15:39:59;31.30;77.40
14236;DHT22;7202;50.718;7.072;2022-08-24T15:42:31;31.20;77.90
14236;DHT22;7202;50.718;7.072;2022-08-24T15:45:02;31.20;75.90
14236;DHT22;7202;50.718;7.072;2022-08-24T15:47:33;31.30;76.80
14236;DHT22;7202;50.718;7.072;2022-08-24T15:50:06;31.30;76.10
14236;DHT22;7202;50.718;7.072;2022-08-24T15:52:47;31.30;74.10
14236;DHT22;7202;50.718;7.072;2022-08-24T15:55:33;31.30;76.50
14236;DHT22;7202;50.718;7.072;2022-08-24T15:58:24;31.30;76.10
14236;DHT22;7202;50.718;7.072;2022-08-24T16:00:59;31.30;76.30
14236;DHT22;7202;50.718;7.072;2022-08-24T16:03:49;31.30;75.30
14236;DHT22;7202;50.718;7.072;2022-08-24T16:06:23;31.40;74.40
14236;DHT22;7202;50.718;7.072;2022-08-24T16:08:57;31.40;73.70
14236;DHT22;7202;50.718;7.072;2022-08-24T16:11:30;31.40;74.90
14236;DHT22;7202;50.718;7.072;2022-08-24T16:14:00;31.40;75.20
14236;DHT22;7202;50.718;7.072;2022-08-24T16:16:35;31.30;75.70
14236;DHT22;7202;50.718;7.072;2022-08-24T16:19:06;31.30;76.10
14236;DHT22;7202;50.718;7.072;2022-08-24T16:21:51;31.30;75.40
14236;DHT22;7202;50.718;7.072;2022-08-24T16:24:29;31.30;75.30
14236;DHT22;7202;50.718;7.072;2022-08-24T16:27:02;31.20;75.80
14236;DHT22;7202;50.718;7.072;2022-08-24T16:29:51;31.20;74.00
14236;DHT22;7202;50.718;7.072;2022-08-24T16:32:24;31.10;74.40
14236;DHT22;7202;50.718;7.072;2022-08-24T16:35:16;31.10;74.60
14236;DHT22;7202;50.718;7.072;2022-08-24T16:37:45;31.10;73.80
14236;DHT22;7202;50.718;7.072;2022-08-24T16:40:17;31.10;73.80
14236;DHT22;7202;50.718;7.072;2022-08-24T16:42:46;31.00;75.10
14236;DHT22;7202;50.718;7.072;2022-08-24T16:45:18;31.00;75.10
14236;DHT22;7202;50.718;7.072;2022-08-24T16:47:47;31.00;74.70
14236;DHT22;7202;50.718;7.072;2022-08-24T16:50:18;31.00;73.70
14236;DHT22;7202;50.718;7.072;2022-08-24T16:52:48;30.90;75.30
14236;DHT22;7202;50.718;7.072;2022-08-24T16:55:18;31.00;75.50
14236;DHT22;7202;50.718;7.072;2022-08-24T16:57:47;30.90;75.50
14236;DHT22;7202;50.718;7.072;2022-08-24T17:00:17;30.80;74.70
14236;DHT22;7202;50.718;7.072;2022-08-24T17:02:48;30.80;75.10